createdAt,value
2022-07-27T00:01:40.039Z,19.99
2022-07-27T00:04:10.523Z,19.96
2022-07-27T00:06:37.054Z,19.96
2022-07-27T00:09:03.840Z,19.95
2022-07-27T00:11:30.338Z,19.92
2022-07-27T00:13:56.768Z,19.91
2022-07-27T00:16:23.284Z,19.89
2022-07-27T00:18:49.752Z,19.92
2022-07-27T00:21:16.220Z,19.90
2022-07-27T00:23:42.659Z,19.92
2022-07-27T00:26:09.201Z,19.90
2022-07-27T00:28:35.748Z,19.88
2022-07-27T00:31:02.305Z,19.88
2022-07-27T00:33:28.788Z,19.89
2022-07-27T00:35:55.528Z,19.87
2022-07-27T00:38:21.964Z,19.87
2022-07-27T00:40:48.384Z,19.85
2022-07-27T00:43:15.219Z,19.82
2022-07-27T00:45:41.829Z,19.79
2022-07-27T00:48:08.470Z,19.78
2022-07-27T00:50:35.439Z,19.76
2022-07-27T00:53:04.829Z,19.76
2022-07-27T00:55:33.470Z,19.77
2022-07-27T00:58:00.891Z,19.76
2022-07-27T01:00:28.641Z,19.76
2022-07-27T01:02:57.130Z,19.75
2022-07-27T01:05:24.352Z,19.74
2022-07-27T01:08:03.281Z,19.72
2022-07-27T01:10:29.753Z,19.73
2022-07-27T01:12:56.500Z,19.73
2022-07-27T01:15:22.993Z,19.72
2022-07-27T01:17:49.443Z,19.72
2022-07-27T01:20:15.908Z,19.72
2022-07-27T01:22:42.345Z,19.73
2022-07-27T01:25:10.074Z,19.70
2022-07-27T01:27:36.931Z,19.68
2022-07-27T01:30:24.396Z,19.65
2022-07-27T01:32:50.937Z,19.64
2022-07-27T01:35:17.453Z,19.63
2022-07-27T01:37:48.205Z,19.61
2022-07-27T01:40:15.048Z,19.62
2022-07-27T01:42:41.640Z,19.58
2022-07-27T01:45:09.032Z,19.56
2022-07-27T01:47:35.486Z,19.54
2022-07-27T01:50:02.213Z,19.50
2022-07-27T01:52:28.996Z,19.44
2022-07-27T01:54:55.456Z,19.42
2022-07-27T01:57:21.896Z,19.42
2022-07-27T01:59:48.356Z,19.39
2022-07-27T02:02:16.102Z,19.38
2022-07-27T02:04:43.201Z,19.39
2022-07-27T02:07:09.682Z,19.38
2022-07-27T02:09:36.309Z,19.37
2022-07-27T02:12:21.676Z,19.34
2022-07-27T02:14:48.153Z,19.32
2022-07-27T02:17:14.605Z,19.33
2022-07-27T02:19:41.471Z,19.31
2022-07-27T02:22:08.914Z,19.28
2022-07-27T02:24:37.745Z,19.27
2022-07-27T02:27:04.392Z,19.20
2022-07-27T02:29:30.868Z,19.18
2022-07-27T02:31:57.426Z,19.09
2022-07-27T02:34:23.865Z,19.07
2022-07-27T02:36:50.296Z,19.04
2022-07-27T02:39:16.686Z,19.00
2022-07-27T02:41:44.904Z,18.96
2022-07-27T02:44:11.305Z,18.88
2022-07-27T02:46:37.781Z,18.83
2022-07-27T02:49:04.251Z,18.82
2022-07-27T02:51:30.882Z,18.78
2022-07-27T02:53:57.283Z,18.79
2022-07-27T02:56:26.953Z,18.80
2022-07-27T02:58:53.765Z,18.74
2022-07-27T03:01:20.262Z,18.74
2022-07-27T03:03:47.244Z,18.70
2022-07-27T03:06:13.928Z,18.63
2022-07-27T03:08:40.595Z,18.60
2022-07-27T03:11:08.472Z,18.55
2022-07-27T03:13:34.867Z,18.49
2022-07-27T03:16:01.586Z,18.46
2022-07-27T03:18:28.114Z,18.44
2022-07-27T03:20:54.575Z,18.38
2022-07-27T03:23:21.461Z,18.34
2022-07-27T03:25:48.534Z,18.27
2022-07-27T03:28:14.941Z,18.17
2022-07-27T03:30:41.520Z,18.15
2022-07-27T03:33:07.981Z,18.12
2022-07-27T03:35:34.469Z,18.08
2022-07-27T03:38:00.938Z,18.08
2022-07-27T03:40:29.525Z,18.07
2022-07-27T03:42:56.234Z,18.03
2022-07-27T03:45:22.680Z,17.96
2022-07-27T03:47:49.076Z,17.92
2022-07-27T03:50:15.478Z,17.89
2022-07-27T03:52:45.443Z,17.83
2022-07-27T03:55:12.354Z,17.81
2022-07-27T03:57:38.804Z,17.79
2022-07-27T04:00:05.900Z,17.74
2022-07-27T04:02:32.433Z,17.73
2022-07-27T04:04:58.876Z,17.69
2022-07-27T04:07:25.802Z,17.67
2022-07-27T04:09:52.205Z,17.64
2022-07-27T04:12:19.998Z,17.63
2022-07-27T04:14:46.593Z,17.59
2022-07-27T04:17:13.081Z,17.61
2022-07-27T04:19:59.497Z,17.65
2022-07-27T04:22:25.966Z,17.68
2022-07-27T04:24:52.421Z,17.70
2022-07-27T04:27:18.840Z,17.70
2022-07-27T04:29:45.248Z,17.71
2022-07-27T04:32:11.764Z,17.72
2022-07-27T04:34:38.291Z,17.75
2022-07-27T04:37:05.853Z,17.79
2022-07-27T04:39:32.270Z,17.82
2022-07-27T04:41:58.721Z,17.82
2022-07-27T04:44:25.154Z,17.89
2022-07-27T04:46:51.616Z,17.92
2022-07-27T04:49:18.102Z,17.92
2022-07-27T04:51:45.029Z,17.88
2022-07-27T04:54:12.347Z,17.83
2022-07-27T04:56:38.984Z,17.78
2022-07-27T04:59:05.480Z,17.76
2022-07-27T05:01:35.240Z,17.80
2022-07-27T05:04:04.031Z,17.85
2022-07-27T05:06:32.888Z,17.89
2022-07-27T05:09:00.095Z,17.92
2022-07-27T05:11:26.492Z,17.92
2022-07-27T05:13:52.902Z,17.92
2022-07-27T05:16:19.480Z,17.94
2022-07-27T05:18:46.079Z,17.98
2022-07-27T05:21:12.613Z,17.98
2022-07-27T05:23:39.049Z,17.96
2022-07-27T05:26:05.589Z,17.93
2022-07-27T05:28:32.315Z,17.88
2022-07-27T05:30:59.009Z,17.89
2022-07-27T05:33:25.606Z,17.91
2022-07-27T05:35:52.364Z,17.94
2022-07-27T05:38:18.791Z,17.89
2022-07-27T05:40:46.278Z,17.82
2022-07-27T05:43:12.778Z,17.77
2022-07-27T05:45:39.395Z,17.69
2022-07-27T05:48:06.193Z,17.67
2022-07-27T05:50:32.650Z,17.62
2022-07-27T05:53:00.583Z,17.60
2022-07-27T05:55:27.301Z,17.57
2022-07-27T05:57:53.814Z,17.58
2022-07-27T06:00:20.248Z,17.59
2022-07-27T06:02:46.682Z,17.59
2022-07-27T06:05:15.929Z,17.63
2022-07-27T06:07:59.581Z,17.67
2022-07-27T06:10:32.269Z,17.70
2022-07-27T06:12:59.710Z,17.72
2022-07-27T06:15:26.301Z,17.72
2022-07-27T06:17:54.039Z,17.74
2022-07-27T06:20:21.522Z,17.70
2022-07-27T06:22:54.591Z,17.67
2022-07-27T06:25:22.175Z,17.62
2022-07-27T06:27:49.073Z,17.59
2022-07-27T06:30:18.264Z,17.61
2022-07-27T06:32:46.376Z,17.66
2022-07-27T06:35:14.018Z,17.63
2022-07-27T06:37:44.071Z,17.60
2022-07-27T06:40:14.391Z,17.52
2022-07-27T06:42:41.542Z,17.54
2022-07-27T06:45:09.528Z,17.54
2022-07-27T06:47:36.769Z,17.48
2022-07-27T06:50:17.578Z,17.50
2022-07-27T06:52:44.230Z,17.51
2022-07-27T06:55:10.665Z,17.54
2022-07-27T06:57:37.064Z,17.56
2022-07-27T07:00:04.894Z,17.62
2022-07-27T07:02:31.295Z,17.69
2022-07-27T07:04:57.770Z,17.71
2022-07-27T07:07:24.244Z,17.79
2022-07-27T07:09:51.344Z,17.90
2022-07-27T07:12:18.358Z,18.02
2022-07-27T07:14:45.516Z,18.12
2022-07-27T07:17:12.148Z,18.19
2022-07-27T07:19:38.691Z,18.25
2022-07-27T07:22:06.356Z,18.30
2022-07-27T07:24:32.857Z,18.27
2022-07-27T07:26:59.302Z,18.26
2022-07-27T07:29:25.727Z,18.19
2022-07-27T07:31:52.234Z,18.20
2022-07-27T07:34:18.715Z,18.21
2022-07-27T07:36:46.300Z,18.21
2022-07-27T07:39:13.103Z,18.32
2022-07-27T07:41:39.769Z,18.37
2022-07-27T07:44:06.660Z,18.43
2022-07-27T07:46:33.198Z,18.53
2022-07-27T07:48:59.745Z,18.61
2022-07-27T07:51:26.224Z,18.65
2022-07-27T07:53:52.677Z,18.64
2022-07-27T07:56:19.116Z,18.69
2022-07-27T07:58:45.611Z,18.78
2022-07-27T08:01:12.314Z,18.87
2022-07-27T08:03:38.750Z,18.99
2022-07-27T08:06:06.440Z,19.02
2022-07-27T08:08:33.059Z,19.11
2022-07-27T08:10:59.491Z,19.15
2022-07-27T08:13:25.953Z,19.18
2022-07-27T08:15:52.999Z,19.23
2022-07-27T08:18:19.894Z,19.28
2022-07-27T08:20:46.757Z,19.28
2022-07-27T08:23:13.276Z,19.33
2022-07-27T08:25:39.800Z,19.41
2022-07-27T08:28:06.417Z,19.53
2022-07-27T08:30:34.466Z,19.56
2022-07-27T08:33:03.489Z,19.51
2022-07-27T08:35:32.158Z,19.50
2022-07-27T08:37:59.190Z,19.46
2022-07-27T08:40:44.080Z,19.46
2022-07-27T08:43:12.111Z,19.47
2022-07-27T08:45:41.326Z,19.50
2022-07-27T08:48:12.809Z,19.61
2022-07-27T08:50:40.467Z,19.63
2022-07-27T08:53:09.339Z,19.67
2022-07-27T08:55:38.955Z,19.80
2022-07-27T08:58:06.538Z,19.90
2022-07-27T09:00:34.568Z,19.99
2022-07-27T09:03:01.383Z,20.10
2022-07-27T09:05:37.567Z,20.22
2022-07-27T09:08:28.813Z,20.44
2022-07-27T09:10:59.156Z,20.66
2022-07-27T09:13:34.395Z,20.83
2022-07-27T09:16:19.222Z,20.97
2022-07-27T09:18:47.135Z,20.94
2022-07-27T09:21:20.046Z,21.02
2022-07-27T09:23:50.335Z,21.05
2022-07-27T09:26:31.154Z,21.13
2022-07-27T09:29:03.845Z,21.04
2022-07-27T09:31:31.409Z,21.16
2022-07-27T09:34:01.598Z,21.37
2022-07-27T09:36:30.006Z,21.58
2022-07-27T09:39:07.977Z,21.77
2022-07-27T09:41:46.696Z,21.93
2022-07-27T09:44:32.185Z,21.94
2022-07-27T09:46:59.987Z,22.04
2022-07-27T09:49:28.956Z,22.11
2022-07-27T09:51:59.912Z,22.17
2022-07-27T09:54:27.334Z,22.25
2022-07-27T09:57:01.801Z,22.29
2022-07-27T09:59:29.901Z,22.28
2022-07-27T10:01:57.240Z,22.33
2022-07-27T10:04:24.984Z,22.32
2022-07-27T10:07:02.727Z,22.16
2022-07-27T10:09:31.043Z,22.02
2022-07-27T10:11:58.352Z,22.17
2022-07-27T10:14:25.617Z,22.37
2022-07-27T10:16:53.187Z,22.63
2022-07-27T10:19:41.862Z,22.80
2022-07-27T10:22:08.422Z,23.02
2022-07-27T10:24:37.171Z,23.18
2022-07-27T10:27:29.307Z,23.37
2022-07-27T10:29:57.470Z,23.42
2022-07-27T10:32:31.717Z,23.53
2022-07-27T10:34:59.764Z,23.39
2022-07-27T10:37:34.160Z,23.21
2022-07-27T10:40:26.941Z,23.05
2022-07-27T10:43:19.979Z,22.97
2022-07-27T10:46:01.846Z,22.90
2022-07-27T10:48:46.053Z,23.08
2022-07-27T10:51:16.564Z,23.30
2022-07-27T10:54:11.033Z,23.13
2022-07-27T10:56:47.965Z,23.08
2022-07-27T10:59:15.028Z,23.01
2022-07-27T11:01:57.279Z,22.90
2022-07-27T11:04:24.452Z,23.00
2022-07-27T11:07:23.611Z,23.31
2022-07-27T11:12:30.529Z,24.18
2022-07-27T11:14:58.631Z,24.42
2022-07-27T11:17:54.745Z,24.43
2022-07-27T11:20:22.673Z,24.45
2022-07-27T11:25:35.682Z,24.63
2022-07-27T11:28:07.481Z,24.75
2022-07-27T11:30:34.078Z,24.82
2022-07-27T11:33:04.463Z,25.05
2022-07-27T11:35:30.941Z,25.24
2022-07-27T11:38:03.638Z,25.13
2022-07-27T11:40:59.924Z,25.02
2022-07-27T11:43:37.690Z,24.93
2022-07-27T11:46:25.758Z,25.15
2022-07-27T11:49:09.480Z,25.27
2022-07-27T11:51:50.101Z,25.45
2022-07-27T11:54:34.803Z,25.81
2022-07-27T11:57:04.482Z,26.10
2022-07-27T11:59:32.656Z,26.42
2022-07-27T12:02:10.477Z,26.80
2022-07-27T12:04:39.672Z,27.14
2022-07-27T12:07:07.959Z,27.39
2022-07-27T12:09:39.084Z,27.39
2022-07-27T12:12:12.101Z,27.16
2022-07-27T12:14:45.745Z,27.06
2022-07-27T12:17:20.393Z,27.05
2022-07-27T12:20:00.549Z,27.10
2022-07-27T12:22:29.608Z,27.19
2022-07-27T12:24:57.827Z,27.22
2022-07-27T12:27:26.196Z,27.41
2022-07-27T12:30:09.260Z,27.65
2022-07-27T12:32:45.119Z,27.75
2022-07-27T12:35:24.308Z,27.61
2022-07-27T12:38:10.989Z,27.00
2022-07-27T12:40:46.502Z,26.75
2022-07-27T12:43:17.287Z,26.85
2022-07-27T12:45:44.188Z,27.07
2022-07-27T12:48:18.880Z,27.24
2022-07-27T12:50:48.078Z,27.51
2022-07-27T12:53:16.630Z,27.66
2022-07-27T12:55:44.012Z,27.90
2022-07-27T12:58:13.974Z,28.16
2022-07-27T13:00:41.243Z,28.42
2022-07-27T13:03:08.194Z,28.62
2022-07-27T13:05:36.701Z,28.56
2022-07-27T13:08:04.756Z,28.12
2022-07-27T13:10:31.691Z,28.05
2022-07-27T13:12:59.068Z,28.22
2022-07-27T13:15:25.772Z,28.21
2022-07-27T13:17:52.631Z,28.37
2022-07-27T13:20:19.270Z,28.48
2022-07-27T13:22:46.765Z,28.51
2022-07-27T13:25:15.957Z,28.65
2022-07-27T13:27:44.465Z,28.47
2022-07-27T13:30:11.949Z,28.28
2022-07-27T13:32:39.174Z,28.04
2022-07-27T13:35:07.533Z,27.75
2022-07-27T13:37:34.067Z,27.45
2022-07-27T13:40:00.721Z,27.22
2022-07-27T13:42:27.141Z,27.01
2022-07-27T13:45:10.849Z,26.75
2022-07-27T13:47:39.641Z,26.49
2022-07-27T13:50:15.183Z,26.33
2022-07-27T13:52:44.469Z,26.27
2022-07-27T13:55:10.961Z,26.31
2022-07-27T13:57:37.433Z,26.72
2022-07-27T14:00:04.614Z,27.08
2022-07-27T14:02:31.270Z,27.18
2022-07-27T14:04:58.509Z,27.02
2022-07-27T14:07:28.242Z,27.00
2022-07-27T14:10:24.617Z,27.29
2022-07-27T14:12:54.282Z,27.30
2022-07-27T14:15:24.965Z,27.22
2022-07-27T14:17:51.361Z,27.01
2022-07-27T14:20:18.232Z,26.94
2022-07-27T14:22:44.676Z,27.07
2022-07-27T14:25:11.225Z,26.97
2022-07-27T14:27:37.983Z,27.22
2022-07-27T14:30:06.751Z,27.55
2022-07-27T14:32:33.701Z,27.58
2022-07-27T14:35:00.353Z,27.75
2022-07-27T14:37:26.760Z,27.93
2022-07-27T14:39:53.242Z,27.94
2022-07-27T14:42:22.127Z,27.68
2022-07-27T14:44:48.514Z,27.65
2022-07-27T14:47:14.976Z,27.82
2022-07-27T14:49:41.442Z,28.14
2022-07-27T14:52:13.253Z,28.43
2022-07-27T14:54:44.704Z,28.78
2022-07-27T14:57:11.413Z,29.18
2022-07-27T14:59:38.628Z,29.60
2022-07-27T15:02:05.770Z,29.85
2022-07-27T15:04:33.136Z,29.70
2022-07-27T15:07:00.040Z,29.27
2022-07-27T15:09:30.198Z,29.01
2022-07-27T15:11:59.272Z,28.77
2022-07-27T15:14:26.419Z,28.44
2022-07-27T15:16:53.920Z,28.13
2022-07-27T15:19:20.393Z,27.90
2022-07-27T15:21:47.267Z,27.69
2022-07-27T15:24:14.136Z,27.51
2022-07-27T15:26:40.845Z,27.33
2022-07-27T15:29:07.513Z,27.14
2022-07-27T15:31:33.972Z,26.89
2022-07-27T15:34:01.578Z,26.62
2022-07-27T15:36:33.371Z,26.39
2022-07-27T15:39:01.069Z,26.50
2022-07-27T15:41:27.640Z,26.84
2022-07-27T15:43:55.304Z,27.15
2022-07-27T15:46:27.293Z,27.56
2022-07-27T15:48:54.944Z,28.04
2022-07-27T15:51:21.460Z,28.46
2022-07-27T15:53:47.975Z,28.87
2022-07-27T15:56:14.342Z,29.21
2022-07-27T15:58:40.819Z,29.39
2022-07-27T16:01:08.470Z,29.59
2022-07-27T16:03:38.558Z,29.68
2022-07-27T16:06:05.075Z,30.01
2022-07-27T16:08:31.628Z,30.25
2022-07-27T16:10:58.813Z,30.43
2022-07-27T16:13:25.793Z,30.71
2022-07-27T16:16:22.043Z,30.98
2022-07-27T16:18:49.340Z,31.07
2022-07-27T16:21:15.818Z,31.11
2022-07-27T16:23:42.281Z,31.12
2022-07-27T16:26:08.828Z,31.10
2022-07-27T16:28:43.173Z,31.15
2022-07-27T16:31:11.425Z,31.04
2022-07-27T16:33:38.322Z,31.01
2022-07-27T16:36:05.773Z,30.92
2022-07-27T16:38:32.232Z,30.82
2022-07-27T16:40:58.719Z,30.57
2022-07-27T16:43:37.961Z,30.24
2022-07-27T16:46:09.942Z,29.82
2022-07-27T16:48:42.645Z,29.43
2022-07-27T16:51:13.760Z,29.11
2022-07-27T16:53:42.421Z,28.75
2022-07-27T16:56:09.273Z,28.45
2022-07-27T16:58:36.458Z,28.08
2022-07-27T17:01:03.277Z,27.66
2022-07-27T17:03:29.887Z,27.30
2022-07-27T17:05:56.435Z,26.93
2022-07-27T17:08:28.002Z,26.60
2022-07-27T17:10:55.319Z,26.28
2022-07-27T17:13:21.915Z,26.04
2022-07-27T17:15:48.448Z,25.75
2022-07-27T17:18:16.041Z,25.54
2022-07-27T17:20:42.480Z,25.44
2022-07-27T17:23:10.120Z,25.34
2022-07-27T17:25:36.928Z,25.28
2022-07-27T17:28:03.632Z,25.26
2022-07-27T17:30:32.912Z,25.23
2022-07-27T17:33:02.920Z,25.12
2022-07-27T17:35:29.432Z,25.01
2022-07-27T17:38:06.256Z,24.89
2022-07-27T17:40:34.168Z,24.78
2022-07-27T17:43:00.721Z,24.80
2022-07-27T17:45:27.353Z,24.77
2022-07-27T17:47:53.882Z,24.75
2022-07-27T17:50:20.423Z,24.71
2022-07-27T17:52:46.890Z,24.64
2022-07-27T17:55:13.390Z,24.59
2022-07-27T17:57:39.828Z,24.53
2022-07-27T18:00:07.539Z,24.46
2022-07-27T18:02:36.415Z,24.35
2022-07-27T18:05:02.846Z,24.27
2022-07-27T18:07:29.253Z,24.18
2022-07-27T18:10:06.040Z,24.07
2022-07-27T18:12:34.410Z,23.94
2022-07-27T18:15:19.450Z,23.85
2022-07-27T18:17:45.832Z,23.68
2022-07-27T18:20:12.472Z,23.59
2022-07-27T18:22:39.054Z,23.50
2022-07-27T18:25:07.369Z,23.41
2022-07-27T18:27:35.350Z,23.35
2022-07-27T18:30:03.717Z,23.28
2022-07-27T18:32:30.203Z,23.20
2022-07-27T18:34:56.652Z,23.12
2022-07-27T18:37:23.068Z,23.05
2022-07-27T18:39:49.766Z,23.00
2022-07-27T18:42:16.236Z,22.91
2022-07-27T18:44:42.742Z,22.85
2022-07-27T18:47:09.165Z,22.79
2022-07-27T18:49:35.776Z,22.72
2022-07-27T18:52:02.312Z,22.63
2022-07-27T18:54:29.586Z,22.51
2022-07-27T18:56:56.223Z,22.37
2022-07-27T18:59:23.275Z,22.31
2022-07-27T19:01:49.824Z,22.20
2022-07-27T19:04:16.671Z,22.09
2022-07-27T19:06:44.563Z,21.98
2022-07-27T19:09:13.152Z,21.83
2022-07-27T19:11:39.794Z,21.74
2022-07-27T19:14:06.306Z,21.63
2022-07-27T19:16:34.298Z,21.53
2022-07-27T19:19:00.926Z,21.41
2022-07-27T19:21:27.871Z,21.28
2022-07-27T19:23:54.932Z,21.16
2022-07-27T19:26:21.373Z,21.03
2022-07-27T19:28:47.881Z,20.91
2022-07-27T19:31:22.606Z,20.82
2022-07-27T19:33:50.999Z,20.69
2022-07-27T19:36:17.727Z,20.58
2022-07-27T19:38:44.371Z,20.46
2022-07-27T19:41:10.820Z,20.34
2022-07-27T19:43:37.244Z,20.26
2022-07-27T19:46:03.767Z,20.14
2022-07-27T19:48:30.309Z,20.02
2022-07-27T19:51:00.862Z,19.87
2022-07-27T19:53:30.714Z,19.75
2022-07-27T19:55:58.171Z,19.67
2022-07-27T19:58:24.855Z,19.58
2022-07-27T20:00:51.590Z,19.50
2022-07-27T20:03:19.272Z,19.44
2022-07-27T20:05:47.016Z,19.35
2022-07-27T20:08:13.908Z,19.25
2022-07-27T20:10:42.505Z,19.19
2022-07-27T20:13:09.698Z,19.08
2022-07-27T20:15:36.739Z,19.01
2022-07-27T20:18:04.009Z,18.91
2022-07-27T20:20:30.957Z,18.82
2022-07-27T20:22:58.411Z,18.75
2022-07-27T20:25:25.775Z,18.65
2022-07-27T20:27:52.300Z,18.55
2022-07-27T20:30:19.923Z,18.48
2022-07-27T20:32:48.289Z,18.45
2022-07-27T20:35:15.378Z,18.37
2022-07-27T20:37:42.781Z,18.32
2022-07-27T20:40:11.656Z,18.30
2022-07-27T20:42:42.709Z,18.23
2022-07-27T20:45:11.301Z,18.18
2022-07-27T20:47:40.909Z,18.15
2022-07-27T20:50:09.251Z,18.09
2022-07-27T20:52:36.152Z,18.04
2022-07-27T20:55:02.610Z,17.99
2022-07-27T20:57:29.083Z,17.94
2022-07-27T20:59:55.508Z,17.86
2022-07-27T21:02:22.091Z,17.80
2022-07-27T21:04:48.634Z,17.76
2022-07-27T21:07:15.633Z,17.69
2022-07-27T21:09:42.056Z,17.63
2022-07-27T21:12:08.605Z,17.58
2022-07-27T21:14:34.992Z,17.51
2022-07-27T21:17:01.566Z,17.42
2022-07-27T21:19:28.088Z,17.37
2022-07-27T21:21:54.519Z,17.33
2022-07-27T21:24:22.766Z,17.27
2022-07-27T21:26:51.449Z,17.25
2022-07-27T21:29:19.554Z,17.23
2022-07-27T21:31:49.065Z,17.17
2022-07-27T21:34:18.000Z,17.14
2022-07-27T21:36:45.543Z,17.13
2022-07-27T21:39:12.259Z,17.12
2022-07-27T21:41:39.307Z,17.10
2022-07-27T21:44:05.849Z,17.03
2022-07-27T21:46:32.335Z,17.03
2022-07-27T21:48:58.916Z,16.99
2022-07-27T21:51:25.480Z,16.95
2022-07-27T21:53:52.065Z,16.91
2022-07-27T21:56:19.039Z,16.87
2022-07-27T21:58:45.884Z,16.83
2022-07-27T22:01:13.292Z,16.79
2022-07-27T22:03:41.194Z,16.77
2022-07-27T22:06:09.589Z,16.70
2022-07-27T22:08:36.292Z,16.66
2022-07-27T22:11:03.059Z,16.57
2022-07-27T22:13:29.716Z,16.55
2022-07-27T22:15:56.280Z,16.52
2022-07-27T22:18:22.747Z,16.51
2022-07-27T22:20:49.270Z,16.47
2022-07-27T22:23:16.231Z,16.44
2022-07-27T22:25:43.180Z,16.40
2022-07-27T22:28:09.764Z,16.35
2022-07-27T22:30:36.284Z,16.30
2022-07-27T22:33:02.733Z,16.26
2022-07-27T22:35:29.262Z,16.17
2022-07-27T22:37:55.663Z,16.08
2022-07-27T22:40:22.389Z,16.04
2022-07-27T22:42:48.804Z,16.00
2022-07-27T22:45:15.320Z,15.95
2022-07-27T22:47:42.552Z,15.90
2022-07-27T22:50:17.937Z,15.87
2022-07-27T22:52:44.954Z,15.83
2022-07-27T22:55:11.352Z,15.75
2022-07-27T22:57:37.873Z,15.69
2022-07-27T23:00:06.044Z,15.65
2022-07-27T23:02:32.569Z,15.60
2022-07-27T23:04:59.104Z,15.59
2022-07-27T23:07:25.642Z,15.54
2022-07-27T23:09:52.162Z,15.49
2022-07-27T23:12:18.618Z,15.47
2022-07-27T23:14:49.088Z,15.45
2022-07-27T23:17:15.859Z,15.39
2022-07-27T23:19:42.660Z,15.34
2022-07-27T23:22:10.977Z,15.32
2022-07-27T23:24:38.186Z,15.28
2022-07-27T23:27:07.544Z,15.25
2022-07-27T23:29:34.007Z,15.25
2022-07-27T23:32:00.606Z,15.25
2022-07-27T23:34:29.060Z,15.24
2022-07-27T23:36:55.784Z,15.24
2022-07-27T23:39:22.216Z,15.26
2022-07-27T23:41:50.182Z,15.26
2022-07-27T23:44:17.489Z,15.24
2022-07-27T23:46:44.145Z,15.25
2022-07-27T23:49:10.835Z,15.21
2022-07-27T23:51:37.382Z,15.17
2022-07-27T23:54:03.890Z,15.15
2022-07-27T23:56:30.330Z,15.13
2022-07-27T23:58:56.768Z,15.11
